Disclaimer

Please do not use the information listed here in-flight or in-navigation, as they are not provided to us by the airports but are provided by volunteers, so they might be outdated.

Search


Regions


Airport information page

Radio informations:
Aerodrome flight information system (AFIS) - 118.4 MHz

Airport informations:
Latitude: 19° 09' 04.56" S
Longitude: 033° 25' 44.25" E
Elevation: 2287 feet - 697 meters
Operating hours: Remarks
Operating agency: Civil government, landing fees and diplomatic clearance may be required
Timezone: UTC+2
Fuel: N/A

Runway information:
01/19 - 7874 x 148 feet< - >2400 x 45 meters

Recent METARs:
FQCH 130300Z 32004KT CAVOK 20/20 Q1019
FQCH 130300Z 32004KT CAVOK 20/20 Q1019
FQCH 130400Z 35004KT 9999 FEW015 20/20 Q1020

Airport on the map: